Time;durP1;ratioP1;P1;durP2;ratioP2;P2;SDS_P1;SDS_P2;PMS_P1;PMS_P2;Temp;Humidity;BMP_temperature;BMP_pressure;BME280_temperature;BME280_humidity;BME280_pressure;Samples;Min_cycle;Max_cycle;Signal;HPM_P1;HPM_P2
2021/12/11 00:00:57;;;;;;;82.27;25.87;;;1.00;99.90;;;;;;4395075;32;20175;-69
2021/12/11 00:03:31;;;;;;;65.43;24.23;;;0.90;99.90;;;;;;4392977;32;20170;-69
2021/12/11 00:06:05;;;;;;;66.87;23.80;;;0.90;99.90;;;;;;4393657;32;20197;-69
2021/12/11 00:08:33;;;;;;;71.33;24.17;;;0.80;99.90;;;;;;4394883;32;20222;-69
2021/12/11 00:11:09;;;;;;;69.47;24.90;;;0.90;99.90;;;;;;4394171;32;20171;-69
2021/12/11 00:13:40;;;;;;;64.90;24.47;;;0.90;99.90;;;;;;4393373;32;20206;-69
2021/12/11 00:16:11;;;;;;;63.43;23.83;;;0.90;99.90;;;;;;4394308;32;20233;-69
2021/12/11 00:18:39;;;;;;;61.40;23.33;;;0.90;99.90;;;;;;4394728;32;20235;-70
2021/12/11 00:21:16;;;;;;;68.57;23.57;;;0.90;99.90;;;;;;4392914;32;20179;-69
2021/12/11 00:23:52;;;;;;;59.83;22.93;;;0.90;99.90;;;;;;4395522;32;20185;-69
2021/12/11 00:26:40;;;;;;;78.07;24.90;;;0.90;99.90;;;;;;4393707;32;20179;-69
2021/12/11 00:29:09;;;;;;;64.23;24.00;;;0.90;99.90;;;;;;4394512;32;20221;-69
2021/12/11 00:31:43;;;;;;;72.20;23.30;;;0.90;99.90;;;;;;4393013;32;20175;-69
2021/12/11 00:34:12;;;;;;;62.97;22.77;;;0.90;99.90;;;;;;4393265;32;20171;-69
2021/12/11 00:36:39;;;;;;;66.63;24.23;;;0.80;99.90;;;;;;4393233;32;20209;-69
2021/12/11 00:39:13;;;;;;;78.73;23.70;;;0.70;99.90;;;;;;4394608;32;20224;-69
2021/12/11 00:41:49;;;;;;;73.23;24.53;;;0.80;99.90;;;;;;4394056;32;20251;-69
2021/12/11 00:44:16;;;;;;;67.30;23.40;;;0.80;99.90;;;;;;4394050;32;20448;-69
2021/12/11 00:46:43;;;;;;;66.00;22.83;;;0.80;99.90;;;;;;4394189;32;20402;-69
2021/12/11 00:49:19;;;;;;;60.50;22.50;;;0.80;99.90;;;;;;4393414;32;20223;-69
2021/12/11 00:51:54;;;;;;;63.87;22.90;;;0.70;99.90;;;;;;4394193;32;20186;-69
2021/12/11 00:54:22;;;;;;;78.80;24.17;;;0.80;99.90;;;;;;4392823;32;20209;-70
2021/12/11 00:56:50;;;;;;;72.77;24.00;;;0.70;99.90;;;;;;4392403;32;20172;-70
2021/12/11 00:59:20;;;;;;;73.20;25.00;;;0.80;99.90;;;;;;4394294;32;20175;-70
2021/12/11 01:01:59;;;;;;;71.67;24.70;;;0.80;99.90;;;;;;4394509;32;20194;-69
2021/12/11 01:04:37;;;;;;;70.20;24.23;;;0.80;99.90;;;;;;4393621;32;20207;-70
2021/12/11 01:07:17;;;;;;;77.10;24.07;;;0.80;99.90;;;;;;4392845;32;20179;-69
2021/12/11 01:10:05;;;;;;;75.53;23.93;;;0.80;99.90;;;;;;4393522;32;20183;-69
2021/12/11 01:12:51;;;;;;;69.60;24.83;;;0.80;99.90;;;;;;4393279;32;20179;-69
2021/12/11 01:15:34;;;;;;;73.83;23.40;;;0.80;99.90;;;;;;4393479;32;20158;-70
2021/12/11 01:20:50;;;;;;;76.87;24.33;;;0.90;99.90;;;;;;4392832;32;20217;-69
2021/12/11 01:26:05;;;;;;;76.83;24.43;;;0.90;99.90;;;;;;4393724;32;20198;-70
2021/12/11 01:28:33;;;;;;;71.10;23.00;;;0.90;99.90;;;;;;4393647;32;20183;-70
2021/12/11 01:31:01;;;;;;;83.50;24.53;;;0.80;99.90;;;;;;4393036;32;20214;-69
2021/12/11 01:33:29;;;;;;;77.07;25.07;;;0.90;99.90;;;;;;4393703;32;20188;-69
2021/12/11 01:35:56;;;;;;;71.43;24.73;;;0.80;99.90;;;;;;4393197;32;20139;-69
2021/12/11 01:38:27;;;;;;;72.60;24.77;;;0.80;99.90;;;;;;4392194;32;20253;-70
2021/12/11 01:40:58;;;;;;;76.57;25.07;;;0.90;99.90;;;;;;4392026;32;20213;-69
2021/12/11 01:43:28;;;;;;;82.77;25.60;;;0.90;99.90;;;;;;4391911;32;20208;-69
2021/12/11 01:45:57;;;;;;;74.10;23.97;;;1.00;99.90;;;;;;4392202;32;20525;-70
2021/12/11 01:48:34;;;;;;;71.23;23.77;;;1.00;99.90;;;;;;4392912;32;20175;-70
2021/12/11 01:51:06;;;;;;;66.03;23.27;;;1.00;99.90;;;;;;4392687;32;20179;-69
2021/12/11 01:53:39;;;;;;;59.50;21.87;;;1.00;99.90;;;;;;4391736;32;20591;-69
2021/12/11 01:56:27;;;;;;;62.53;22.03;;;0.90;99.90;;;;;;4391917;32;20179;-69
2021/12/11 01:58:58;;;;;;;59.43;21.33;;;0.90;99.90;;;;;;4394580;32;20165;-69
2021/12/11 02:02:01;;;;;;;63.57;22.30;;;0.90;99.90;;;;;;4393533;32;20151;-70
2021/12/11 02:04:30;;;;;;;62.73;21.63;;;0.90;99.90;;;;;;4393402;32;20260;-69
2021/12/11 02:07:05;;;;;;;82.37;22.50;;;0.90;99.90;;;;;;4393878;32;20139;-70
2021/12/11 02:09:35;;;;;;;64.77;21.20;;;0.80;99.90;;;;;;4393699;32;20147;-69
2021/12/11 02:12:36;;;;;;;63.07;21.73;;;0.80;99.90;;;;;;4393564;32;20236;-69
2021/12/11 02:15:08;;;;;;;58.73;21.63;;;0.90;99.90;;;;;;4396252;32;20327;-69
2021/12/11 02:18:01;;;;;;;60.93;21.90;;;1.00;99.90;;;;;;4395409;32;20201;-69
2021/12/11 02:20:36;;;;;;;64.63;21.77;;;1.00;99.90;;;;;;4402321;32;20537;-70
2021/12/11 02:23:05;;;;;;;56.77;20.00;;;1.00;99.90;;;;;;4406998;32;20170;-69
2021/12/11 02:25:37;;;;;;;59.43;21.17;;;1.00;99.90;;;;;;4408109;32;20171;-70
2021/12/11 02:28:10;;;;;;;67.37;20.93;;;0.90;99.90;;;;;;4406696;32;20198;-69
2021/12/11 02:31:04;;;;;;;61.10;20.93;;;0.90;99.90;;;;;;4407320;32;20175;-69
2021/12/11 02:33:47;;;;;;;56.87;21.13;;;0.90;99.90;;;;;;4406358;32;20167;-70
2021/12/11 02:36:32;;;;;;;62.57;20.67;;;0.90;99.90;;;;;;4407024;32;20167;-69
2021/12/11 02:39:02;;;;;;;66.60;21.17;;;0.90;99.90;;;;;;4406674;32;20218;-69
2021/12/11 02:41:35;;;;;;;63.10;20.00;;;0.80;99.90;;;;;;4406638;32;20227;-70
2021/12/11 02:44:08;;;;;;;65.80;21.13;;;0.70;99.90;;;;;;4409517;32;20215;-69
2021/12/11 02:46:44;;;;;;;64.33;20.93;;;0.70;99.90;;;;;;4408948;32;20167;-69
2021/12/11 02:49:31;;;;;;;56.73;20.03;;;0.70;99.90;;;;;;4407955;32;20135;-69
2021/12/11 02:52:27;;;;;;;49.13;18.77;;;0.80;99.90;;;;;;4406949;32;20440;-69
2021/12/11 02:55:06;;;;;;;52.20;19.30;;;0.70;99.90;;;;;;4395414;32;20234;-69
2021/12/11 02:57:39;;;;;;;52.87;20.17;;;0.80;99.90;;;;;;4407745;32;20171;-69
2021/12/11 03:00:32;;;;;;;51.40;19.77;;;0.80;99.90;;;;;;4407517;32;20207;-69
2021/12/11 03:03:05;;;;;;;56.17;19.27;;;0.80;99.90;;;;;;4346335;33;20200;-69
2021/12/11 03:05:41;;;;;;;47.73;18.10;;;0.70;99.90;;;;;;4333903;33;20177;-70
2021/12/11 03:08:13;;;;;;;48.80;17.70;;;0.70;99.90;;;;;;4333942;33;20590;-70
2021/12/11 03:10:42;;;;;;;58.30;18.90;;;0.70;99.90;;;;;;4334729;33;20204;-70
2021/12/11 03:13:10;;;;;;;60.70;20.67;;;0.70;99.90;;;;;;4345152;33;20160;-69
2021/12/11 03:15:37;;;;;;;51.00;19.27;;;0.70;99.90;;;;;;4335507;33;20285;-69
2021/12/11 03:18:05;;;;;;;52.13;19.17;;;0.70;99.90;;;;;;4334414;33;20180;-69
2021/12/11 03:20:34;;;;;;;59.07;19.23;;;0.70;99.90;;;;;;4328466;33;20207;-69
2021/12/11 03:23:02;;;;;;;62.30;19.93;;;0.70;99.90;;;;;;4331688;33;20191;-69
2021/12/11 03:25:30;;;;;;;51.70;18.53;;;0.70;99.90;;;;;;4330861;33;20227;-69
2021/12/11 03:27:58;;;;;;;51.90;19.63;;;0.60;99.90;;;;;;4319889;33;20168;-69
2021/12/11 03:30:31;;;;;;;54.33;18.87;;;0.60;99.90;;;;;;4319878;33;20199;-69
2021/12/11 03:33:03;;;;;;;50.73;19.60;;;0.60;99.90;;;;;;4318244;33;20195;-69
2021/12/11 03:35:30;;;;;;;49.13;18.40;;;0.60;99.90;;;;;;4319181;33;20200;-68
2021/12/11 03:37:57;;;;;;;53.57;18.87;;;0.60;99.90;;;;;;4319563;33;20203;-68
2021/12/11 03:40:25;;;;;;;50.87;18.97;;;0.60;99.90;;;;;;4374398;32;20603;-68
2021/12/11 03:42:54;;;;;;;50.87;18.83;;;0.60;99.90;;;;;;4394461;32;20168;-69
2021/12/11 03:45:27;;;;;;;54.10;19.57;;;0.60;99.90;;;;;;4393778;32;20171;-69
2021/12/11 03:47:59;;;;;;;54.87;18.90;;;0.60;99.90;;;;;;4393586;32;20240;-69
2021/12/11 03:50:28;;;;;;;56.73;19.30;;;0.60;99.90;;;;;;4393604;32;20206;-68
2021/12/11 03:52:56;;;;;;;55.27;19.47;;;0.60;99.90;;;;;;4393970;32;20172;-69
2021/12/11 03:55:31;;;;;;;57.93;20.00;;;0.50;99.90;;;;;;4393541;32;20191;-69
2021/12/11 03:58:00;;;;;;;52.20;19.60;;;0.50;99.90;;;;;;4394704;32;20196;-68
2021/12/11 04:00:38;;;;;;;58.80;19.43;;;0.60;99.90;;;;;;4395416;32;20171;-69
2021/12/11 04:03:08;;;;;;;59.30;19.03;;;0.60;99.90;;;;;;4395186;32;20155;-69
2021/12/11 04:05:38;;;;;;;53.60;19.27;;;0.60;99.90;;;;;;4394691;32;20167;-69
2021/12/11 04:08:08;;;;;;;57.67;19.73;;;0.60;99.90;;;;;;4393858;32;20205;-69
2021/12/11 04:10:36;;;;;;;58.40;19.77;;;0.60;99.90;;;;;;4394407;32;20207;-68
2021/12/11 04:13:07;;;;;;;55.10;20.47;;;0.60;99.90;;;;;;4394444;32;20168;-68
2021/12/11 04:15:35;;;;;;;64.37;21.43;;;0.70;99.90;;;;;;4394174;32;20187;-68
2021/12/11 04:18:04;;;;;;;55.90;19.80;;;0.70;99.90;;;;;;4393235;32;20203;-68
2021/12/11 04:20:36;;;;;;;56.53;19.70;;;0.80;99.90;;;;;;4393963;32;20233;-69
2021/12/11 04:23:04;;;;;;;51.87;19.33;;;0.70;99.90;;;;;;4392813;32;20261;-68
2021/12/11 04:25:31;;;;;;;52.13;20.30;;;0.70;99.90;;;;;;4395036;32;20205;-68
2021/12/11 04:27:59;;;;;;;55.60;20.40;;;0.70;99.90;;;;;;4393968;32;20159;-68
2021/12/11 04:30:28;;;;;;;55.53;20.07;;;0.70;99.90;;;;;;4394869;32;20179;-68
2021/12/11 04:32:57;;;;;;;56.93;19.53;;;0.70;99.90;;;;;;4393676;32;20198;-69
2021/12/11 04:35:28;;;;;;;55.20;20.60;;;0.70;99.90;;;;;;4380716;32;20163;-68
2021/12/11 04:37:59;;;;;;;54.53;20.03;;;0.70;99.90;;;;;;4394022;32;20238;-68
2021/12/11 04:40:32;;;;;;;55.70;19.77;;;0.70;99.90;;;;;;4394207;32;20187;-69
2021/12/11 04:43:09;;;;;;;52.77;19.30;;;0.70;99.90;;;;;;4393778;32;20163;-68
2021/12/11 04:45:41;;;;;;;56.03;19.33;;;0.80;99.90;;;;;;4393423;32;20179;-68
2021/12/11 04:48:24;;;;;;;59.07;19.93;;;0.70;99.90;;;;;;4394680;32;20183;-68
2021/12/11 04:51:07;;;;;;;54.73;18.87;;;0.70;99.90;;;;;;4395815;32;20200;-68
2021/12/11 04:56:51;;;;;;;49.73;18.93;;;0.70;99.90;;;;;;4394891;32;20186;-68
2021/12/11 04:59:39;;;;;;;46.80;18.57;;;0.70;99.90;;;;;;4392679;32;20187;-67
2021/12/11 05:09:57;;;;;;;57.40;20.60;;;0.70;99.90;;;;;;4394343;32;20183;-68
2021/12/11 05:14:56;;;;;;;56.23;21.07;;;0.80;99.90;;;;;;4394507;32;20211;-68
2021/12/11 05:17:24;;;;;;;59.63;21.53;;;0.80;99.90;;;;;;4380351;32;20203;-68
2021/12/11 05:19:53;;;;;;;57.53;21.43;;;0.80;99.90;;;;;;4392202;32;20187;-68
2021/12/11 05:22:20;;;;;;;61.33;22.03;;;0.90;99.90;;;;;;4392910;32;20202;-68
2021/12/11 05:24:51;;;;;;;61.77;21.50;;;0.90;99.90;;;;;;4393305;32;20231;-68
2021/12/11 05:27:20;;;;;;;59.37;22.20;;;0.90;99.90;;;;;;4392387;32;20242;-69
2021/12/11 05:29:47;;;;;;;59.87;20.70;;;0.90;99.90;;;;;;4393062;32;20194;-69
2021/12/11 05:32:17;;;;;;;59.47;22.23;;;0.90;99.90;;;;;;4394102;32;20163;-68
2021/12/11 05:34:44;;;;;;;65.33;22.63;;;0.90;99.90;;;;;;4395242;32;20218;-68
2021/12/11 05:37:11;;;;;;;61.17;21.07;;;1.00;99.90;;;;;;4393730;32;20207;-68
2021/12/11 05:39:39;;;;;;;55.90;19.87;;;1.00;99.90;;;;;;4381108;32;20258;-68
2021/12/11 05:42:07;;;;;;;65.67;22.60;;;1.00;99.90;;;;;;4391991;32;20183;-68
2021/12/11 05:44:35;;;;;;;67.60;21.93;;;1.10;99.90;;;;;;4392858;32;20193;-69
2021/12/11 05:47:04;;;;;;;62.60;22.17;;;1.00;99.90;;;;;;4394174;32;20182;-69
2021/12/11 05:49:31;;;;;;;65.03;20.97;;;1.10;99.90;;;;;;4393317;32;20454;-69
2021/12/11 05:52:00;;;;;;;62.27;21.60;;;1.10;99.90;;;;;;4393335;32;20454;-68
2021/12/11 05:54:28;;;;;;;62.50;21.50;;;1.00;99.90;;;;;;4392771;32;20232;-68
2021/12/11 05:57:01;;;;;;;63.90;20.53;;;1.00;99.90;;;;;;4393696;32;20182;-68
2021/12/11 05:59:29;;;;;;;68.33;21.33;;;1.00;99.90;;;;;;4392790;32;20250;-68
2021/12/11 06:02:03;;;;;;;62.80;22.03;;;1.00;99.90;;;;;;4393942;32;20214;-69
2021/12/11 06:04:34;;;;;;;68.20;22.07;;;1.10;99.90;;;;;;4392191;32;20171;-69
2021/12/11 06:07:03;;;;;;;59.47;20.97;;;1.20;99.90;;;;;;4393432;32;20171;-69
2021/12/11 06:09:31;;;;;;;65.43;21.33;;;1.20;99.90;;;;;;4394822;32;20193;-69
2021/12/11 06:12:03;;;;;;;67.27;21.53;;;1.20;99.90;;;;;;4391815;32;20163;-68
2021/12/11 06:14:30;;;;;;;63.73;20.93;;;1.20;99.90;;;;;;4391613;32;20552;-68
2021/12/11 06:17:00;;;;;;;63.17;21.77;;;1.20;99.90;;;;;;4391386;32;20194;-69
2021/12/11 06:19:28;;;;;;;66.23;21.40;;;1.20;99.90;;;;;;4394514;32;20179;-69
2021/12/11 06:21:56;;;;;;;64.10;22.10;;;1.20;99.90;;;;;;4391815;32;20175;-68
2021/12/11 06:24:24;;;;;;;65.57;21.23;;;1.30;99.90;;;;;;4391663;32;20221;-68
2021/12/11 06:26:53;;;;;;;67.90;21.97;;;1.30;99.90;;;;;;4392268;32;20311;-68
2021/12/11 06:29:21;;;;;;;60.33;21.33;;;1.30;99.90;;;;;;4406363;32;20171;-68
2021/12/11 06:31:50;;;;;;;67.30;23.43;;;1.30;99.90;;;;;;4407748;32;20526;-68
2021/12/11 06:34:17;;;;;;;67.40;22.60;;;1.30;99.90;;;;;;4406831;32;20191;-68
2021/12/11 06:36:46;;;;;;;63.90;21.37;;;1.30;99.90;;;;;;4408648;32;20165;-68
2021/12/11 06:39:17;;;;;;;66.67;22.63;;;1.30;99.90;;;;;;4406991;32;20185;-68
2021/12/11 06:41:53;;;;;;;71.17;22.40;;;1.30;99.90;;;;;;4406780;32;20224;-68
2021/12/11 06:44:27;;;;;;;68.70;22.20;;;1.30;99.90;;;;;;4408121;32;20135;-68
2021/12/11 06:47:03;;;;;;;69.57;22.67;;;1.30;99.90;;;;;;4407910;32;20177;-68
2021/12/11 06:49:33;;;;;;;71.87;22.63;;;1.30;99.90;;;;;;4408076;32;20224;-69
2021/12/11 06:52:03;;;;;;;74.70;23.20;;;1.30;99.90;;;;;;4407339;32;20213;-68
2021/12/11 06:54:30;;;;;;;72.90;23.03;;;1.30;99.90;;;;;;4407280;32;20220;-68
2021/12/11 06:56:57;;;;;;;71.40;22.03;;;1.30;99.90;;;;;;4395391;32;20254;-68
2021/12/11 06:59:24;;;;;;;74.33;23.00;;;1.30;99.90;;;;;;4407880;32;20217;-68
2021/12/11 07:01:53;;;;;;;67.37;23.10;;;1.30;99.90;;;;;;4407767;32;20178;-68
2021/12/11 07:04:21;;;;;;;78.17;23.40;;;1.30;99.90;;;;;;4406156;32;20206;-69
2021/12/11 07:06:52;;;;;;;71.83;22.23;;;1.30;99.90;;;;;;4406530;32;20174;-68
2021/12/11 07:09:21;;;;;;;67.17;21.40;;;1.30;99.90;;;;;;4406494;32;20243;-68
2021/12/11 07:11:52;;;;;;;71.20;21.87;;;1.30;99.90;;;;;;4406292;32;20171;-68
2021/12/11 07:14:21;;;;;;;65.60;22.70;;;1.30;99.90;;;;;;4409452;32;20194;-68
2021/12/11 07:16:49;;;;;;;70.77;22.37;;;1.40;99.90;;;;;;4410995;32;20187;-69
2021/12/11 07:19:16;;;;;;;71.17;23.27;;;1.40;99.90;;;;;;4409066;32;20175;-68
2021/12/11 07:21:46;;;;;;;67.10;22.90;;;1.40;99.90;;;;;;4411936;32;20379;-68
2021/12/11 07:24:15;;;;;;;63.70;22.80;;;1.40;99.90;;;;;;4408941;32;20179;-69
2021/12/11 07:26:42;;;;;;;67.47;21.80;;;1.40;99.90;;;;;;4409219;32;20594;-68
2021/12/11 07:29:16;;;;;;;61.47;22.83;;;1.50;99.90;;;;;;4409511;32;20176;-68
2021/12/11 07:31:45;;;;;;;60.80;22.47;;;1.50;99.90;;;;;;4410943;32;20525;-68
2021/12/11 07:34:13;;;;;;;65.67;23.57;;;1.50;99.90;;;;;;4411101;32;20179;-68
2021/12/11 07:36:40;;;;;;;61.17;22.03;;;1.60;99.90;;;;;;4408871;32;20198;-68
2021/12/11 07:39:12;;;;;;;63.60;22.60;;;1.60;99.90;;;;;;4408803;32;20198;-69
2021/12/11 07:41:39;;;;;;;63.43;22.00;;;1.60;99.90;;;;;;4412039;32;20438;-69
2021/12/11 07:44:06;;;;;;;61.70;21.83;;;1.70;99.90;;;;;;4410888;32;20172;-68
2021/12/11 07:46:34;;;;;;;58.57;21.63;;;1.70;99.90;;;;;;4409854;32;20455;-68
2021/12/11 07:49:03;;;;;;;57.07;21.93;;;1.80;99.90;;;;;;4408411;32;20229;-69
2021/12/11 07:51:32;;;;;;;65.70;22.10;;;1.80;99.90;;;;;;4410261;32;20171;-69
2021/12/11 07:53:59;;;;;;;57.17;22.03;;;1.80;99.90;;;;;;4409309;32;20179;-68
2021/12/11 07:56:28;;;;;;;63.00;22.23;;;1.80;99.90;;;;;;4408487;32;20170;-68
2021/12/11 07:58:59;;;;;;;59.10;22.30;;;1.90;99.90;;;;;;4410375;32;20171;-69
2021/12/11 08:01:31;;;;;;;57.87;21.67;;;1.90;99.90;;;;;;4409028;32;20249;-68
2021/12/11 08:03:59;;;;;;;58.13;21.63;;;1.90;99.90;;;;;;4410946;32;20186;-69
2021/12/11 08:06:28;;;;;;;63.30;22.90;;;1.90;99.90;;;;;;4410025;32;20250;-68
2021/12/11 08:08:55;;;;;;;58.20;21.27;;;2.00;99.90;;;;;;4410300;32;20194;-68
2021/12/11 08:11:25;;;;;;;62.50;22.27;;;1.90;99.90;;;;;;4408151;32;20278;-68
2021/12/11 08:13:52;;;;;;;56.77;21.93;;;2.00;99.90;;;;;;4408841;32;20179;-68
2021/12/11 08:16:24;;;;;;;57.67;22.77;;;2.00;99.90;;;;;;4407655;32;20178;-69
2021/12/11 08:18:53;;;;;;;63.33;22.63;;;2.00;99.90;;;;;;4409806;32;20205;-68
2021/12/11 08:21:21;;;;;;;63.90;23.57;;;2.10;99.90;;;;;;4410347;32;20169;-68
2021/12/11 08:23:54;;;;;;;58.47;23.03;;;2.10;99.90;;;;;;4408191;32;20424;-68
2021/12/11 08:26:24;;;;;;;62.13;22.80;;;2.10;99.90;;;;;;4409142;32;20229;-69
2021/12/11 08:28:52;;;;;;;65.03;24.03;;;2.20;99.90;;;;;;4409773;32;20144;-69
2021/12/11 08:31:20;;;;;;;63.53;23.33;;;2.20;99.90;;;;;;4409353;32;20323;-69
2021/12/11 08:33:48;;;;;;;55.50;21.90;;;2.20;99.90;;;;;;4409283;32;20214;-69
2021/12/11 08:36:15;;;;;;;54.70;21.87;;;2.30;99.90;;;;;;4409350;32;20480;-68
2021/12/11 08:38:43;;;;;;;58.40;22.00;;;2.30;99.90;;;;;;4407909;32;20203;-69
2021/12/11 08:41:13;;;;;;;63.33;24.00;;;2.40;99.90;;;;;;4410227;32;20447;-68
2021/12/11 08:43:41;;;;;;;61.77;23.17;;;2.40;99.90;;;;;;4410830;32;20176;-69
2021/12/11 08:46:14;;;;;;;66.00;22.73;;;2.40;99.90;;;;;;4409508;32;20183;-68
2021/12/11 08:48:46;;;;;;;66.17;23.53;;;2.40;99.90;;;;;;4409086;32;20206;-68
2021/12/11 08:51:25;;;;;;;60.73;22.23;;;2.40;99.90;;;;;;4408748;32;20224;-68
2021/12/11 08:53:52;;;;;;;63.37;22.70;;;2.40;99.90;;;;;;4408972;32;20506;-68
2021/12/11 08:56:20;;;;;;;64.23;23.63;;;2.40;99.90;;;;;;4408566;32;20189;-68
2021/12/11 08:58:49;;;;;;;62.50;24.30;;;2.40;99.90;;;;;;4409169;32;20205;-68
2021/12/11 09:01:24;;;;;;;67.83;24.23;;;2.50;99.90;;;;;;4407450;32;20189;-68
2021/12/11 09:04:02;;;;;;;64.23;24.40;;;2.50;99.90;;;;;;4409489;32;20229;-68
2021/12/11 09:06:38;;;;;;;69.77;24.67;;;2.50;99.90;;;;;;4408003;32;20194;-68
2021/12/11 09:09:08;;;;;;;67.47;23.67;;;2.50;99.90;;;;;;4408772;32;20175;-68
2021/12/11 09:11:42;;;;;;;68.23;24.20;;;2.50;99.90;;;;;;4409354;32;20500;-68
2021/12/11 09:14:15;;;;;;;69.27;24.23;;;2.50;99.90;;;;;;4409877;32;20154;-68
2021/12/11 09:16:46;;;;;;;64.50;23.97;;;2.50;99.90;;;;;;4407927;32;20218;-69
2021/12/11 09:19:19;;;;;;;62.10;24.37;;;2.50;99.90;;;;;;4409959;32;20224;-69
2021/12/11 09:21:58;;;;;;;61.27;23.53;;;2.50;99.90;;;;;;4409013;32;20231;-68
2021/12/11 09:24:31;;;;;;;62.63;25.33;;;2.50;99.90;;;;;;4407064;32;20171;-69
2021/12/11 09:27:21;;;;;;;74.97;26.33;;;2.50;99.90;;;;;;4408297;32;20162;-69
2021/12/11 09:29:55;;;;;;;70.40;24.73;;;2.50;99.90;;;;;;4407068;32;20183;-69
2021/12/11 09:32:28;;;;;;;68.27;27.00;;;2.50;99.90;;;;;;4408031;32;20161;-68
2021/12/11 09:35:14;;;;;;;63.20;24.07;;;2.40;99.90;;;;;;4409286;32;20152;-68
2021/12/11 09:37:53;;;;;;;66.60;24.87;;;2.50;99.90;;;;;;4406608;32;20218;-69
2021/12/11 09:40:29;;;;;;;67.43;24.60;;;2.50;99.90;;;;;;4408307;32;20181;-68
2021/12/11 09:42:56;;;;;;;71.00;25.97;;;2.60;99.90;;;;;;4406707;32;20196;-68
2021/12/11 09:45:26;;;;;;;62.33;24.73;;;2.60;99.90;;;;;;4407456;32;20201;-69
2021/12/11 09:48:04;;;;;;;62.10;24.67;;;2.60;99.90;;;;;;4406580;32;20257;-68
2021/12/11 09:50:41;;;;;;;77.40;27.40;;;2.60;99.90;;;;;;4409201;32;20196;-69
2021/12/11 09:53:08;;;;;;;68.93;25.67;;;2.60;99.90;;;;;;4406740;32;20174;-68
2021/12/11 09:55:37;;;;;;;67.23;25.00;;;2.50;99.90;;;;;;4406725;32;20167;-68
2021/12/11 09:58:10;;;;;;;68.60;24.63;;;2.50;99.90;;;;;;4408367;32;20175;-68
2021/12/11 10:00:46;;;;;;;73.70;26.37;;;2.60;99.90;;;;;;4407814;32;20259;-69
2021/12/11 10:03:15;;;;;;;69.60;26.53;;;2.60;99.90;;;;;;4406738;32;20314;-69
2021/12/11 10:05:55;;;;;;;73.80;26.53;;;2.60;99.90;;;;;;4408067;32;20198;-69
2021/12/11 10:08:36;;;;;;;68.17;25.70;;;2.30;99.90;;;;;;4406648;32;20237;-69
2021/12/11 10:11:07;;;;;;;71.67;26.10;;;2.40;99.90;;;;;;4407886;32;20510;-68
2021/12/11 10:13:44;;;;;;;72.07;26.47;;;2.40;99.90;;;;;;4406862;32;20193;-69
2021/12/11 10:16:14;;;;;;;76.27;26.40;;;2.30;99.90;;;;;;4407535;32;20510;-69
2021/12/11 10:18:41;;;;;;;83.80;27.67;;;2.40;99.90;;;;;;4407660;32;20174;-69
2021/12/11 10:21:17;;;;;;;88.67;29.73;;;2.40;99.90;;;;;;4408187;32;20185;-68
2021/12/11 10:23:49;;;;;;;104.17;32.73;;;2.50;99.90;;;;;;4407756;32;20178;-69
2021/12/11 10:26:19;;;;;;;106.07;34.97;;;2.50;99.90;;;;;;4406552;32;20217;-68
2021/12/11 10:28:51;;;;;;;113.77;35.23;;;2.40;99.90;;;;;;4408323;32;20466;-68
2021/12/11 10:31:42;;;;;;;109.00;33.60;;;2.50;99.90;;;;;;4407691;32;20168;-68
2021/12/11 10:34:13;;;;;;;113.47;33.60;;;2.40;99.90;;;;;;4408092;32;20525;-68
2021/12/11 10:37:02;;;;;;;112.93;34.67;;;2.40;99.90;;;;;;4406850;32;20225;-68
2021/12/11 10:39:29;;;;;;;122.17;37.23;;;2.30;99.90;;;;;;4407975;32;20194;-68
2021/12/11 10:41:57;;;;;;;114.23;35.37;;;2.30;99.90;;;;;;4406152;32;20183;-68
2021/12/11 10:44:32;;;;;;;119.53;35.60;;;2.10;99.90;;;;;;4406758;32;20179;-69
2021/12/11 10:47:03;;;;;;;106.93;33.93;;;2.10;99.90;;;;;;4407626;32;20183;-69
2021/12/11 10:49:31;;;;;;;115.87;33.73;;;2.10;99.90;;;;;;4412040;32;20155;-69
2021/12/11 10:52:14;;;;;;;112.77;35.20;;;2.30;99.90;;;;;;4408932;32;20213;-68
2021/12/11 10:54:41;;;;;;;115.97;35.93;;;2.40;99.90;;;;;;4410520;32;20193;-69
2021/12/11 10:57:08;;;;;;;112.23;35.83;;;2.40;99.90;;;;;;4411432;32;20163;-69
2021/12/11 10:59:40;;;;;;;114.13;35.47;;;2.50;99.90;;;;;;4409773;32;20185;-69
2021/12/11 11:02:20;;;;;;;114.77;36.03;;;2.60;99.90;;;;;;4397139;32;20179;-68
2021/12/11 11:04:56;;;;;;;112.20;36.03;;;2.70;99.90;;;;;;4410509;32;20166;-68
2021/12/11 11:07:25;;;;;;;124.13;36.90;;;2.80;99.90;;;;;;4411621;32;20205;-68
2021/12/11 11:09:56;;;;;;;122.27;36.30;;;2.60;99.90;;;;;;4410891;32;20272;-68
2021/12/11 11:12:25;;;;;;;131.53;37.47;;;2.40;99.90;;;;;;4410472;32;20167;-68
2021/12/11 11:14:54;;;;;;;121.93;37.47;;;2.40;99.90;;;;;;4410693;32;20201;-68
2021/12/11 11:17:28;;;;;;;122.83;36.37;;;2.50;99.90;;;;;;4409410;32;20175;-69
2021/12/11 11:19:58;;;;;;;129.23;38.17;;;2.50;99.90;;;;;;4410575;32;20158;-68
2021/12/11 11:22:29;;;;;;;124.17;37.93;;;2.50;99.90;;;;;;4409377;32;20183;-68
2021/12/11 11:25:11;;;;;;;123.63;36.47;;;2.50;99.90;;;;;;4410548;32;20416;-68
2021/12/11 11:27:40;;;;;;;125.23;37.80;;;2.50;99.90;;;;;;4411103;32;20173;-68
2021/12/11 11:30:13;;;;;;;119.53;37.60;;;2.60;99.90;;;;;;4398606;32;20183;-68
2021/12/11 11:32:40;;;;;;;117.83;35.77;;;2.70;99.90;;;;;;4409426;32;20199;-68
2021/12/11 11:35:13;;;;;;;114.17;35.20;;;2.80;99.90;;;;;;4409537;32;20213;-68
2021/12/11 11:37:46;;;;;;;112.97;37.07;;;2.90;99.90;;;;;;4410469;32;20246;-69
2021/12/11 11:40:18;;;;;;;115.60;35.33;;;2.90;99.90;;;;;;4410819;32;20435;-68
2021/12/11 11:42:46;;;;;;;106.67;35.33;;;3.00;99.90;;;;;;4410803;32;20159;-68
2021/12/11 11:45:13;;;;;;;108.17;34.80;;;3.10;99.90;;;;;;4396379;32;20245;-68
2021/12/11 11:47:41;;;;;;;97.30;33.63;;;3.10;99.90;;;;;;4408487;32;20196;-68
2021/12/11 11:50:15;;;;;;;113.33;34.67;;;3.10;99.90;;;;;;4410260;32;20147;-68
2021/12/11 11:52:42;;;;;;;98.13;33.33;;;3.10;99.90;;;;;;4409073;32;20175;-68
2021/12/11 11:55:15;;;;;;;103.70;35.20;;;3.20;99.90;;;;;;4410091;32;20210;-68
2021/12/11 11:57:47;;;;;;;93.93;32.10;;;3.20;99.90;;;;;;4396029;32;20206;-69
2021/12/11 12:00:32;;;;;;;107.83;34.23;;;3.20;99.90;;;;;;4408855;32;20190;-69
2021/12/11 12:03:00;;;;;;;103.80;32.30;;;3.20;99.90;;;;;;4409006;32;20189;-69
2021/12/11 12:05:31;;;;;;;96.80;32.50;;;3.20;99.90;;;;;;4409167;32;20217;-68
2021/12/11 12:07:58;;;;;;;95.07;33.33;;;3.30;99.90;;;;;;4411193;32;20152;-68
2021/12/11 12:10:27;;;;;;;93.30;31.70;;;3.30;99.90;;;;;;4408840;32;20203;-68
2021/12/11 12:12:54;;;;;;;106.50;34.80;;;3.30;99.90;;;;;;4409623;32;20454;-68
2021/12/11 12:15:55;;;;;;;97.37;31.53;;;3.20;99.90;;;;;;4410224;32;20170;-68
2021/12/11 12:18:25;;;;;;;99.20;32.40;;;3.20;99.90;;;;;;4408139;32;20198;-68
2021/12/11 12:20:52;;;;;;;99.43;33.63;;;3.20;99.90;;;;;;4408045;32;20239;-69
2021/12/11 12:23:20;;;;;;;105.10;33.33;;;3.30;99.90;;;;;;4409453;32;20234;-68
2021/12/11 12:25:51;;;;;;;93.50;32.43;;;3.30;99.90;;;;;;4410378;32;20169;-69
2021/12/11 12:28:20;;;;;;;101.87;33.83;;;3.30;99.90;;;;;;4409872;32;20200;-68
2021/12/11 12:31:03;;;;;;;100.97;34.63;;;3.30;99.90;;;;;;4409410;32;20186;-68
2021/12/11 12:33:31;;;;;;;91.97;31.60;;;3.30;99.90;;;;;;4408641;32;20217;-68
2021/12/11 12:36:00;;;;;;;100.40;34.80;;;3.30;99.90;;;;;;4407742;32;20570;-68
2021/12/11 12:38:32;;;;;;;104.57;33.33;;;3.20;99.90;;;;;;4409956;32;20174;-68
2021/12/11 12:41:01;;;;;;;101.33;34.10;;;3.20;99.90;;;;;;4408391;32;20206;-68
2021/12/11 12:46:43;;;;;;;123.83;38.00;;;3.10;99.90;;;;;;4408458;32;20193;-68
2021/12/11 12:49:11;;;;;;;121.57;37.50;;;3.00;99.90;;;;;;4348531;33;20219;-68
2021/12/11 12:51:39;;;;;;;128.80;39.10;;;2.90;99.90;;;;;;4335454;33;20184;-68
2021/12/11 12:54:09;;;;;;;125.83;38.60;;;2.90;99.90;;;;;;4336241;33;20184;-68
2021/12/11 12:56:41;;;;;;;125.23;38.13;;;2.70;99.90;;;;;;4335535;33;20420;-68
2021/12/11 12:59:15;;;;;;;131.47;38.90;;;2.60;99.90;;;;;;4334368;33;20174;-68
2021/12/11 13:01:54;;;;;;;123.43;37.53;;;2.50;99.90;;;;;;4335010;33;20192;-68
2021/12/11 13:04:28;;;;;;;127.00;39.37;;;2.50;99.90;;;;;;4334741;33;20187;-68
2021/12/11 13:06:59;;;;;;;129.20;39.73;;;2.50;99.90;;;;;;4347560;33;20453;-68
2021/12/11 13:09:29;;;;;;;138.00;39.63;;;2.60;99.90;;;;;;4335342;33;20168;-68
2021/12/11 13:12:07;;;;;;;133.30;39.23;;;2.60;99.90;;;;;;4335729;33;20173;-69
2021/12/11 13:14:35;;;;;;;126.30;38.77;;;2.60;99.90;;;;;;4320143;33;20200;-69
2021/12/11 13:17:10;;;;;;;137.77;40.20;;;2.70;99.90;;;;;;4320533;33;20251;-68
2021/12/11 13:19:42;;;;;;;126.07;38.97;;;2.60;99.90;;;;;;4319762;33;20199;-69
2021/12/11 13:22:17;;;;;;;136.67;40.30;;;2.60;99.90;;;;;;4320094;33;20185;-68